sensor_id;sensor_type;location;lat;lon;timestamp;P1;durP1;ratioP1;P2;durP2;ratioP2
77821;SDS011;67012;53.712;10.728;2023-06-14T05:35:30;5.10;;;2.78;;
77821;SDS011;67012;53.712;10.728;2023-06-14T05:37:55;5.03;;;2.93;;
77821;SDS011;67012;53.712;10.728;2023-06-14T05:40:21;4.32;;;3.00;;
77821;SDS011;67012;53.712;10.728;2023-06-14T05:42:46;4.07;;;2.73;;
77821;SDS011;67012;53.712;10.728;2023-06-14T05:45:11;5.07;;;3.10;;
77821;SDS011;67012;53.712;10.728;2023-06-14T05:47:37;5.10;;;3.10;;
77821;SDS011;67012;53.712;10.728;2023-06-14T05:53:04;3.53;;;2.78;;
77821;SDS011;67012;53.712;10.728;2023-06-14T05:55:30;3.87;;;3.07;;
77821;SDS011;67012;53.712;10.728;2023-06-14T05:57:55;5.87;;;3.20;;
77821;SDS011;67012;53.712;10.728;2023-06-14T06:00:20;5.73;;;2.90;;
77821;SDS011;67012;53.712;10.728;2023-06-14T06:02:45;6.40;;;2.60;;
77821;SDS011;67012;53.712;10.728;2023-06-14T06:41:38;5.75;;;3.08;;
77821;SDS011;67012;53.712;10.728;2023-06-14T06:56:32;4.40;;;2.63;;
77821;SDS011;67012;53.712;10.728;2023-06-14T06:58:57;3.92;;;2.72;;
77821;SDS011;67012;53.712;10.728;2023-06-14T07:01:22;3.60;;;2.70;;
77821;SDS011;67012;53.712;10.728;2023-06-14T07:03:49;3.63;;;2.88;;
77821;SDS011;67012;53.712;10.728;2023-06-14T07:06:15;4.30;;;2.75;;
77821;SDS011;67012;53.712;10.728;2023-06-14T07:08:43;4.07;;;2.75;;
77821;SDS011;67012;53.712;10.728;2023-06-14T07:11:08;5.23;;;2.83;;
77821;SDS011;67012;53.712;10.728;2023-06-14T07:13:33;4.50;;;2.57;;
77821;SDS011;67012;53.712;10.728;2023-06-14T07:15:59;4.67;;;3.00;;
77821;SDS011;67012;53.712;10.728;2023-06-14T07:18:25;4.03;;;2.47;;
77821;SDS011;67012;53.712;10.728;2023-06-14T07:20:51;5.30;;;2.90;;
77821;SDS011;67012;53.712;10.728;2023-06-14T07:23:17;3.95;;;2.70;;
77821;SDS011;67012;53.712;10.728;2023-06-14T07:25:42;4.97;;;3.00;;
77821;SDS011;67012;53.712;10.728;2023-06-14T07:28:07;4.87;;;2.60;;
77821;SDS011;67012;53.712;10.728;2023-06-14T07:30:32;5.43;;;2.80;;
77821;SDS011;67012;53.712;10.728;2023-06-14T07:32:57;6.60;;;3.00;;
77821;SDS011;67012;53.712;10.728;2023-06-14T07:35:23;7.25;;;2.35;;
77821;SDS011;67012;53.712;10.728;2023-06-14T07:37:48;3.37;;;2.50;;
77821;SDS011;67012;53.712;10.728;2023-06-14T07:40:14;5.88;;;2.55;;
77821;SDS011;67012;53.712;10.728;2023-06-14T07:42:40;3.55;;;2.42;;
77821;SDS011;67012;53.712;10.728;2023-06-14T07:45:05;6.30;;;2.60;;
77821;SDS011;67012;53.712;10.728;2023-06-14T07:47:31;5.00;;;2.50;;
77821;SDS011;67012;53.712;10.728;2023-06-14T07:49:56;5.18;;;2.65;;
77821;SDS011;67012;53.712;10.728;2023-06-14T07:52:21;4.23;;;2.00;;
77821;SDS011;67012;53.712;10.728;2023-06-14T07:54:46;3.42;;;2.30;;
77821;SDS011;67012;53.712;10.728;2023-06-14T07:57:12;3.23;;;2.50;;
77821;SDS011;67012;53.712;10.728;2023-06-14T07:59:37;3.10;;;2.77;;
77821;SDS011;67012;53.712;10.728;2023-06-14T08:02:02;5.40;;;2.60;;
77821;SDS011;67012;53.712;10.728;2023-06-14T08:04:27;3.23;;;2.30;;
77821;SDS011;67012;53.712;10.728;2023-06-14T08:06:53;4.03;;;2.70;;
77821;SDS011;67012;53.712;10.728;2023-06-14T08:09:18;3.50;;;2.57;;
77821;SDS011;67012;53.712;10.728;2023-06-14T08:11:44;3.70;;;2.75;;
77821;SDS011;67012;53.712;10.728;2023-06-14T08:14:10;5.17;;;2.70;;
77821;SDS011;67012;53.712;10.728;2023-06-14T08:16:35;3.53;;;2.70;;
77821;SDS011;67012;53.712;10.728;2023-06-14T08:19:00;4.17;;;2.90;;
77821;SDS011;67012;53.712;10.728;2023-06-14T08:21:26;5.45;;;2.47;;
77821;SDS011;67012;53.712;10.728;2023-06-14T08:23:54;3.67;;;2.40;;
77821;SDS011;67012;53.712;10.728;2023-06-14T08:26:19;3.47;;;2.40;;
77821;SDS011;67012;53.712;10.728;2023-06-14T08:28:44;4.03;;;3.00;;
77821;SDS011;67012;53.712;10.728;2023-06-14T08:31:09;8.17;;;3.00;;
77821;SDS011;67012;53.712;10.728;2023-06-14T08:33:34;3.20;;;2.57;;
77821;SDS011;67012;53.712;10.728;2023-06-14T08:35:59;6.53;;;2.27;;
77821;SDS011;67012;53.712;10.728;2023-06-14T08:38:25;3.83;;;2.50;;
77821;SDS011;67012;53.712;10.728;2023-06-14T08:40:50;5.17;;;3.07;;
77821;SDS011;67012;53.712;10.728;2023-06-14T08:43:16;3.40;;;2.72;;
77821;SDS011;67012;53.712;10.728;2023-06-14T08:45:41;4.07;;;3.40;;
77821;SDS011;67012;53.712;10.728;2023-06-14T08:48:07;5.13;;;3.15;;
77821;SDS011;67012;53.712;10.728;2023-06-14T08:50:32;7.15;;;3.45;;
77821;SDS011;67012;53.712;10.728;2023-06-14T08:52:59;8.65;;;3.15;;
77821;SDS011;67012;53.712;10.728;2023-06-14T08:55:28;5.95;;;2.72;;
77821;SDS011;67012;53.712;10.728;2023-06-14T08:57:55;8.48;;;3.17;;
77821;SDS011;67012;53.712;10.728;2023-06-14T09:00:21;4.57;;;2.72;;
77821;SDS011;67012;53.712;10.728;2023-06-14T09:02:47;3.20;;;2.53;;
77821;SDS011;67012;53.712;10.728;2023-06-14T09:05:12;5.13;;;2.80;;
77821;SDS011;67012;53.712;10.728;2023-06-14T09:07:43;6.40;;;3.17;;
77821;SDS011;67012;53.712;10.728;2023-06-14T09:10:09;4.57;;;2.90;;
77821;SDS011;67012;53.712;10.728;2023-06-14T09:12:35;2.85;;;2.33;;
77821;SDS011;67012;53.712;10.728;2023-06-14T09:15:01;4.68;;;2.88;;
77821;SDS011;67012;53.712;10.728;2023-06-14T09:17:31;4.38;;;2.65;;
77821;SDS011;67012;53.712;10.728;2023-06-14T09:19:58;6.85;;;2.95;;
77821;SDS011;67012;53.712;10.728;2023-06-14T09:22:23;4.25;;;2.90;;
77821;SDS011;67012;53.712;10.728;2023-06-14T09:24:48;4.60;;;2.72;;
77821;SDS011;67012;53.712;10.728;2023-06-14T09:27:16;5.20;;;2.53;;
77821;SDS011;67012;53.712;10.728;2023-06-14T09:29:42;4.78;;;3.17;;
77821;SDS011;67012;53.712;10.728;2023-06-14T09:32:07;3.67;;;2.63;;
77821;SDS011;67012;53.712;10.728;2023-06-14T09:34:33;6.43;;;2.92;;
77821;SDS011;67012;53.712;10.728;2023-06-14T09:36:58;3.40;;;2.78;;
77821;SDS011;67012;53.712;10.728;2023-06-14T09:39:23;3.10;;;2.70;;
77821;SDS011;67012;53.712;10.728;2023-06-14T09:41:50;4.93;;;2.55;;
77821;SDS011;67012;53.712;10.728;2023-06-14T09:44:15;9.37;;;3.30;;
77821;SDS011;67012;53.712;10.728;2023-06-14T09:46:42;4.82;;;3.10;;
77821;SDS011;67012;53.712;10.728;2023-06-14T09:49:07;6.63;;;2.67;;
77821;SDS011;67012;53.712;10.728;2023-06-14T09:51:32;4.33;;;2.87;;
77821;SDS011;67012;53.712;10.728;2023-06-14T09:53:59;5.97;;;2.90;;
77821;SDS011;67012;53.712;10.728;2023-06-14T09:56:28;9.20;;;2.85;;
77821;SDS011;67012;53.712;10.728;2023-06-14T09:58:55;5.85;;;3.00;;
77821;SDS011;67012;53.712;10.728;2023-06-14T10:01:21;5.55;;;2.63;;
77821;SDS011;67012;53.712;10.728;2023-06-14T10:03:46;4.60;;;2.80;;
77821;SDS011;67012;53.712;10.728;2023-06-14T10:06:13;5.32;;;3.25;;
77821;SDS011;67012;53.712;10.728;2023-06-14T10:08:38;5.47;;;2.58;;
77821;SDS011;67012;53.712;10.728;2023-06-14T10:11:05;6.72;;;3.08;;
77821;SDS011;67012;53.712;10.728;2023-06-14T10:13:31;4.60;;;3.00;;
77821;SDS011;67012;53.712;10.728;2023-06-14T10:20:58;3.35;;;2.67;;
77821;SDS011;67012;53.712;10.728;2023-06-14T10:23:25;5.07;;;2.65;;
77821;SDS011;67012;53.712;10.728;2023-06-14T10:25:54;3.42;;;2.40;;
77821;SDS011;67012;53.712;10.728;2023-06-14T10:28:21;3.38;;;2.47;;
77821;SDS011;67012;53.712;10.728;2023-06-14T10:31:04;6.85;;;3.00;;
77821;SDS011;67012;53.712;10.728;2023-06-14T10:33:29;4.68;;;2.28;;
77821;SDS011;67012;53.712;10.728;2023-06-14T10:38:38;7.07;;;3.05;;
77821;SDS011;67012;53.712;10.728;2023-06-14T10:41:04;3.67;;;2.80;;
77821;SDS011;67012;53.712;10.728;2023-06-14T10:43:29;2.92;;;2.60;;
77821;SDS011;67012;53.712;10.728;2023-06-14T10:48:42;4.03;;;2.47;;
77821;SDS011;67012;53.712;10.728;2023-06-14T10:51:18;3.20;;;2.78;;
77821;SDS011;67012;53.712;10.728;2023-06-14T10:53:47;3.72;;;2.25;;
77821;SDS011;67012;53.712;10.728;2023-06-14T10:56:23;4.65;;;2.50;;
77821;SDS011;67012;53.712;10.728;2023-06-14T10:58:49;4.40;;;2.42;;
77821;SDS011;67012;53.712;10.728;2023-06-14T11:01:15;2.92;;;2.63;;
77821;SDS011;67012;53.712;10.728;2023-06-14T11:03:49;4.88;;;2.83;;
77821;SDS011;67012;53.712;10.728;2023-06-14T11:06:16;4.60;;;2.85;;
77821;SDS011;67012;53.712;10.728;2023-06-14T11:11:31;6.43;;;2.90;;
77821;SDS011;67012;53.712;10.728;2023-06-14T11:13:57;6.63;;;2.42;;
77821;SDS011;67012;53.712;10.728;2023-06-14T11:16:22;4.43;;;2.67;;
77821;SDS011;67012;53.712;10.728;2023-06-14T11:18:51;5.82;;;2.50;;
77821;SDS011;67012;53.712;10.728;2023-06-14T11:21:16;4.33;;;2.20;;
77821;SDS011;67012;53.712;10.728;2023-06-14T11:23:43;3.88;;;2.60;;
77821;SDS011;67012;53.712;10.728;2023-06-14T11:26:13;5.47;;;2.22;;
77821;SDS011;67012;53.712;10.728;2023-06-14T11:28:38;4.13;;;2.40;;
77821;SDS011;67012;53.712;10.728;2023-06-14T11:31:05;5.45;;;2.30;;
77821;SDS011;67012;53.712;10.728;2023-06-14T11:33:30;5.05;;;2.72;;
77821;SDS011;67012;53.712;10.728;2023-06-14T11:35:55;3.47;;;2.70;;
77821;SDS011;67012;53.712;10.728;2023-06-14T11:38:21;3.97;;;2.55;;
77821;SDS011;67012;53.712;10.728;2023-06-14T11:40:46;3.60;;;2.30;;
77821;SDS011;67012;53.712;10.728;2023-06-14T11:43:11;3.40;;;2.47;;
77821;SDS011;67012;53.712;10.728;2023-06-14T11:45:38;3.50;;;2.88;;
77821;SDS011;67012;53.712;10.728;2023-06-14T11:48:04;3.17;;;2.08;;
77821;SDS011;67012;53.712;10.728;2023-06-14T11:50:29;4.97;;;2.25;;
77821;SDS011;67012;53.712;10.728;2023-06-14T11:52:55;3.37;;;2.60;;
77821;SDS011;67012;53.712;10.728;2023-06-14T11:55:23;5.68;;;2.78;;
77821;SDS011;67012;53.712;10.728;2023-06-14T11:57:49;2.33;;;2.13;;
77821;SDS011;67012;53.712;10.728;2023-06-14T12:00:14;4.82;;;2.35;;
77821;SDS011;67012;53.712;10.728;2023-06-14T12:02:40;4.13;;;2.40;;
77821;SDS011;67012;53.712;10.728;2023-06-14T12:05:06;5.27;;;2.30;;
77821;SDS011;67012;53.712;10.728;2023-06-14T12:07:36;2.90;;;2.38;;
77821;SDS011;67012;53.712;10.728;2023-06-14T12:12:27;5.95;;;2.35;;
77821;SDS011;67012;53.712;10.728;2023-06-14T12:14:54;5.88;;;2.83;;
77821;SDS011;67012;53.712;10.728;2023-06-14T12:17:21;4.55;;;2.42;;
77821;SDS011;67012;53.712;10.728;2023-06-14T12:19:46;4.75;;;2.22;;
77821;SDS011;67012;53.712;10.728;2023-06-14T12:22:12;2.42;;;2.13;;
77821;SDS011;67012;53.712;10.728;2023-06-14T12:24:38;4.78;;;2.30;;
77821;SDS011;67012;53.712;10.728;2023-06-14T12:27:04;4.03;;;2.22;;
77821;SDS011;67012;53.712;10.728;2023-06-14T12:29:30;3.20;;;2.10;;
77821;SDS011;67012;53.712;10.728;2023-06-14T12:31:56;4.60;;;2.42;;
77821;SDS011;67012;53.712;10.728;2023-06-14T12:34:25;5.97;;;2.50;;
77821;SDS011;67012;53.712;10.728;2023-06-14T12:36:52;3.67;;;2.30;;
77821;SDS011;67012;53.712;10.728;2023-06-14T12:39:18;2.22;;;2.03;;
77821;SDS011;67012;53.712;10.728;2023-06-14T12:41:43;3.78;;;2.20;;
77821;SDS011;67012;53.712;10.728;2023-06-14T12:44:09;4.45;;;2.38;;
77821;SDS011;67012;53.712;10.728;2023-06-14T12:46:34;3.78;;;2.22;;
77821;SDS011;67012;53.712;10.728;2023-06-14T12:49:00;3.67;;;2.13;;
77821;SDS011;67012;53.712;10.728;2023-06-14T12:51:25;2.55;;;2.10;;
77821;SDS011;67012;53.712;10.728;2023-06-14T12:53:51;2.97;;;2.07;;
77821;SDS011;67012;53.712;10.728;2023-06-14T12:56:16;5.45;;;2.63;;
77821;SDS011;67012;53.712;10.728;2023-06-14T12:58:41;3.63;;;2.50;;
77821;SDS011;67012;53.712;10.728;2023-06-14T13:01:07;7.18;;;2.35;;
77821;SDS011;67012;53.712;10.728;2023-06-14T13:03:32;6.20;;;2.00;;
77821;SDS011;67012;53.712;10.728;2023-06-14T13:05:58;3.25;;;2.13;;
77821;SDS011;67012;53.712;10.728;2023-06-14T13:08:23;2.97;;;2.30;;
77821;SDS011;67012;53.712;10.728;2023-06-14T13:10:48;3.70;;;2.43;;
77821;SDS011;67012;53.712;10.728;2023-06-14T13:13:14;4.43;;;2.42;;
77821;SDS011;67012;53.712;10.728;2023-06-14T13:15:39;3.90;;;2.03;;
77821;SDS011;67012;53.712;10.728;2023-06-14T13:18:05;4.05;;;2.42;;
77821;SDS011;67012;53.712;10.728;2023-06-14T13:20:31;4.75;;;2.50;;
77821;SDS011;67012;53.712;10.728;2023-06-14T13:22:56;3.47;;;2.13;;
77821;SDS011;67012;53.712;10.728;2023-06-14T13:25:21;7.28;;;2.58;;
77821;SDS011;67012;53.712;10.728;2023-06-14T13:27:47;3.83;;;2.40;;
77821;SDS011;67012;53.712;10.728;2023-06-14T13:30:12;2.38;;;2.17;;
77821;SDS011;67012;53.712;10.728;2023-06-14T13:32:38;3.97;;;2.47;;
77821;SDS011;67012;53.712;10.728;2023-06-14T13:35:03;4.57;;;2.53;;
77821;SDS011;67012;53.712;10.728;2023-06-14T13:37:29;4.53;;;2.47;;
77821;SDS011;67012;53.712;10.728;2023-06-14T13:39:54;5.30;;;2.43;;
77821;SDS011;67012;53.712;10.728;2023-06-14T13:42:20;4.90;;;2.58;;
77821;SDS011;67012;53.712;10.728;2023-06-14T13:44:45;3.85;;;2.17;;
77821;SDS011;67012;53.712;10.728;2023-06-14T13:47:10;3.27;;;2.43;;
77821;SDS011;67012;53.712;10.728;2023-06-14T13:49:35;5.50;;;2.30;;
77821;SDS011;67012;53.712;10.728;2023-06-14T13:52:01;6.03;;;2.58;;
77821;SDS011;67012;53.712;10.728;2023-06-14T13:54:27;5.57;;;2.10;;
77821;SDS011;67012;53.712;10.728;2023-06-14T13:56:53;3.28;;;2.28;;
77821;SDS011;67012;53.712;10.728;2023-06-14T13:59:18;5.30;;;2.15;;
77821;SDS011;67012;53.712;10.728;2023-06-14T14:01:43;3.53;;;2.27;;
77821;SDS011;67012;53.712;10.728;2023-06-14T14:04:09;3.00;;;2.27;;
77821;SDS011;67012;53.712;10.728;2023-06-14T14:06:34;2.88;;;2.15;;
77821;SDS011;67012;53.712;10.728;2023-06-14T14:09:00;4.20;;;2.15;;
77821;SDS011;67012;53.712;10.728;2023-06-14T14:11:25;2.60;;;2.00;;
77821;SDS011;67012;53.712;10.728;2023-06-14T14:13:50;4.67;;;2.30;;
77821;SDS011;67012;53.712;10.728;2023-06-14T14:16:16;4.60;;;2.50;;
77821;SDS011;67012;53.712;10.728;2023-06-14T14:18:41;6.73;;;2.20;;
77821;SDS011;67012;53.712;10.728;2023-06-14T14:21:06;4.07;;;1.95;;
77821;SDS011;67012;53.712;10.728;2023-06-14T14:23:31;6.13;;;2.00;;
77821;SDS011;67012;53.712;10.728;2023-06-14T14:25:57;2.60;;;2.20;;
77821;SDS011;67012;53.712;10.728;2023-06-14T14:28:22;4.43;;;2.30;;
77821;SDS011;67012;53.712;10.728;2023-06-14T14:30:48;6.25;;;2.95;;
77821;SDS011;67012;53.712;10.728;2023-06-14T14:33:13;5.18;;;2.60;;
77821;SDS011;67012;53.712;10.728;2023-06-14T14:38:05;4.45;;;2.20;;
77821;SDS011;67012;53.712;10.728;2023-06-14T14:40:31;5.35;;;2.00;;
77821;SDS011;67012;53.712;10.728;2023-06-14T14:42:56;5.77;;;2.30;;
77821;SDS011;67012;53.712;10.728;2023-06-14T14:45:21;6.27;;;2.17;;
77821;SDS011;67012;53.712;10.728;2023-06-14T14:47:46;5.97;;;2.40;;
77821;SDS011;67012;53.712;10.728;2023-06-14T14:50:12;4.90;;;2.20;;
77821;SDS011;67012;53.712;10.728;2023-06-14T14:52:37;5.40;;;2.30;;
77821;SDS011;67012;53.712;10.728;2023-06-14T14:55:02;2.47;;;1.88;;
77821;SDS011;67012;53.712;10.728;2023-06-14T14:57:27;3.85;;;2.05;;
77821;SDS011;67012;53.712;10.728;2023-06-14T14:59:53;2.93;;;1.90;;
77821;SDS011;67012;53.712;10.728;2023-06-14T15:02:18;1.80;;;1.70;;
77821;SDS011;67012;53.712;10.728;2023-06-14T15:04:44;5.80;;;2.08;;
77821;SDS011;67012;53.712;10.728;2023-06-14T15:07:09;3.60;;;1.70;;
77821;SDS011;67012;53.712;10.728;2023-06-14T15:09:35;3.77;;;1.80;;
77821;SDS011;67012;53.712;10.728;2023-06-14T15:12:00;4.10;;;1.90;;
77821;SDS011;67012;53.712;10.728;2023-06-14T15:14:25;2.73;;;1.83;;
77821;SDS011;67012;53.712;10.728;2023-06-14T15:16:50;3.37;;;1.93;;
77821;SDS011;67012;53.712;10.728;2023-06-14T15:19:17;3.67;;;1.67;;
77821;SDS011;67012;53.712;10.728;2023-06-14T15:21:42;2.20;;;1.73;;
77821;SDS011;67012;53.712;10.728;2023-06-14T15:24:08;4.07;;;1.90;;
77821;SDS011;67012;53.712;10.728;2023-06-14T15:26:33;2.13;;;1.67;;
77821;SDS011;67012;53.712;10.728;2023-06-14T15:28:58;3.58;;;2.08;;
77821;SDS011;67012;53.712;10.728;2023-06-14T15:31:24;5.82;;;2.10;;
77821;SDS011;67012;53.712;10.728;2023-06-14T15:33:52;4.85;;;1.70;;
77821;SDS011;67012;53.712;10.728;2023-06-14T15:36:17;2.27;;;1.50;;
77821;SDS011;67012;53.712;10.728;2023-06-14T15:38:43;3.67;;;1.90;;
77821;SDS011;67012;53.712;10.728;2023-06-14T15:41:08;4.10;;;1.83;;
77821;SDS011;67012;53.712;10.728;2023-06-14T15:43:33;5.40;;;2.00;;
77821;SDS011;67012;53.712;10.728;2023-06-14T15:45:58;3.57;;;1.87;;
77821;SDS011;67012;53.712;10.728;2023-06-14T15:48:24;2.53;;;1.57;;
77821;SDS011;67012;53.712;10.728;2023-06-14T15:50:49;4.47;;;1.83;;
77821;SDS011;67012;53.712;10.728;2023-06-14T15:53:14;4.20;;;1.63;;
77821;SDS011;67012;53.712;10.728;2023-06-14T15:55:40;1.98;;;1.58;;
77821;SDS011;67012;53.712;10.728;2023-06-14T15:58:05;5.10;;;1.80;;
77821;SDS011;67012;53.712;10.728;2023-06-14T16:00:30;4.07;;;1.33;;
77821;SDS011;67012;53.712;10.728;2023-06-14T16:02:56;4.10;;;1.70;;
77821;SDS011;67012;53.712;10.728;2023-06-14T16:05:21;2.37;;;1.57;;
77821;SDS011;67012;53.712;10.728;2023-06-14T16:07:46;2.77;;;1.73;;
77821;SDS011;67012;53.712;10.728;2023-06-14T16:10:12;3.22;;;1.60;;
77821;SDS011;67012;53.712;10.728;2023-06-14T16:12:38;3.33;;;1.38;;
77821;SDS011;67012;53.712;10.728;2023-06-14T16:15:03;2.47;;;1.60;;
77821;SDS011;67012;53.712;10.728;2023-06-14T16:17:28;5.18;;;1.48;;
77821;SDS011;67012;53.712;10.728;2023-06-14T16:19:53;2.30;;;1.53;;
77821;SDS011;67012;53.712;10.728;2023-06-14T16:22:19;4.45;;;1.88;;
77821;SDS011;67012;53.712;10.728;2023-06-14T16:24:44;2.90;;;1.63;;
77821;SDS011;67012;53.712;10.728;2023-06-14T16:27:09;2.27;;;1.70;;
77821;SDS011;67012;53.712;10.728;2023-06-14T16:29:35;3.63;;;1.75;;
77821;SDS011;67012;53.712;10.728;2023-06-14T16:32:01;2.75;;;1.30;;
77821;SDS011;67012;53.712;10.728;2023-06-14T16:34:26;2.65;;;1.65;;
77821;SDS011;67012;53.712;10.728;2023-06-14T16:36:51;5.13;;;1.90;;
77821;SDS011;67012;53.712;10.728;2023-06-14T16:39:17;3.90;;;1.73;;
77821;SDS011;67012;53.712;10.728;2023-06-14T16:41:42;2.00;;;1.80;;
77821;SDS011;67012;53.712;10.728;2023-06-14T16:44:07;2.13;;;1.57;;
77821;SDS011;67012;53.712;10.728;2023-06-14T16:46:34;5.55;;;1.90;;
77821;SDS011;67012;53.712;10.728;2023-06-14T16:48:59;4.35;;;1.80;;
77821;SDS011;67012;53.712;10.728;2023-06-14T16:51:25;3.35;;;1.50;;
77821;SDS011;67012;53.712;10.728;2023-06-14T16:53:51;3.28;;;1.90;;
77821;SDS011;67012;53.712;10.728;2023-06-14T16:56:17;2.60;;;1.58;;
77821;SDS011;67012;53.712;10.728;2023-06-14T16:58:42;4.05;;;1.52;;
77821;SDS011;67012;53.712;10.728;2023-06-14T17:01:07;5.07;;;1.77;;
77821;SDS011;67012;53.712;10.728;2023-06-14T17:03:32;3.07;;;1.90;;
77821;SDS011;67012;53.712;10.728;2023-06-14T17:05:59;2.65;;;1.65;;
77821;SDS011;67012;53.712;10.728;2023-06-14T17:08:24;4.70;;;1.42;;
77821;SDS011;67012;53.712;10.728;2023-06-14T17:10:50;1.70;;;1.60;;
77821;SDS011;67012;53.712;10.728;2023-06-14T17:13:16;2.08;;;1.33;;
77821;SDS011;67012;53.712;10.728;2023-06-14T17:15:41;3.20;;;1.52;;
77821;SDS011;67012;53.712;10.728;2023-06-14T17:18:07;2.28;;;1.50;;
77821;SDS011;67012;53.712;10.728;2023-06-14T17:20:32;2.20;;;1.40;;
77821;SDS011;67012;53.712;10.728;2023-06-14T17:22:57;1.60;;;1.50;;
77821;SDS011;67012;53.712;10.728;2023-06-14T17:25:22;4.00;;;2.00;;
77821;SDS011;67012;53.712;10.728;2023-06-14T17:27:47;2.70;;;1.60;;
77821;SDS011;67012;53.712;10.728;2023-06-14T17:30:14;2.85;;;1.60;;
77821;SDS011;67012;53.712;10.728;2023-06-14T17:32:40;2.28;;;1.50;;
77821;SDS011;67012;53.712;10.728;2023-06-14T17:35:05;3.40;;;1.70;;
77821;SDS011;67012;53.712;10.728;2023-06-14T17:37:30;3.60;;;1.70;;
77821;SDS011;67012;53.712;10.728;2023-06-14T17:39:55;4.73;;;1.53;;
77821;SDS011;67012;53.712;10.728;2023-06-14T17:42:21;6.37;;;1.97;;
77821;SDS011;67012;53.712;10.728;2023-06-14T17:44:47;2.63;;;1.60;;
77821;SDS011;67012;53.712;10.728;2023-06-14T17:47:15;5.15;;;1.83;;
77821;SDS011;67012;53.712;10.728;2023-06-14T17:49:40;2.30;;;1.90;;
77821;SDS011;67012;53.712;10.728;2023-06-14T17:52:05;3.47;;;1.90;;
77821;SDS011;67012;53.712;10.728;2023-06-14T17:54:30;2.92;;;1.52;;
77821;SDS011;67012;53.712;10.728;2023-06-14T17:56:56;2.13;;;1.70;;
77821;SDS011;67012;53.712;10.728;2023-06-14T17:59:21;4.17;;;1.90;;
77821;SDS011;67012;53.712;10.728;2023-06-14T18:01:46;3.30;;;2.10;;
77821;SDS011;67012;53.712;10.728;2023-06-14T18:04:11;3.03;;;1.70;;
77821;SDS011;67012;53.712;10.728;2023-06-14T18:06:37;4.55;;;1.60;;
77821;SDS011;67012;53.712;10.728;2023-06-14T18:09:02;2.17;;;1.50;;
77821;SDS011;67012;53.712;10.728;2023-06-14T18:11:27;3.67;;;1.80;;
77821;SDS011;67012;53.712;10.728;2023-06-14T18:13:55;2.80;;;1.50;;
77821;SDS011;67012;53.712;10.728;2023-06-14T18:16:20;3.90;;;1.70;;
77821;SDS011;67012;53.712;10.728;2023-06-14T18:18:45;2.03;;;1.33;;
77821;SDS011;67012;53.712;10.728;2023-06-14T18:21:11;4.03;;;1.80;;
77821;SDS011;67012;53.712;10.728;2023-06-14T18:23:36;1.87;;;1.53;;
77821;SDS011;67012;53.712;10.728;2023-06-14T18:26:01;2.20;;;1.40;;
